createdAt,value
2017-05-23T00:01:48.548Z,20.20
2017-05-23T00:04:16.854Z,20.20
2017-05-23T00:06:45.205Z,20.10
2017-05-23T00:09:13.528Z,20.10
2017-05-23T00:11:41.844Z,20.10
2017-05-23T00:14:10.160Z,20.10
2017-05-23T00:16:38.499Z,20.10
2017-05-23T00:19:06.815Z,20.00
2017-05-23T00:21:35.128Z,20.00
2017-05-23T00:24:04.056Z,19.90
2017-05-23T00:26:32.367Z,19.90
2017-05-23T00:29:00.688Z,19.80
2017-05-23T00:31:29.013Z,19.80
2017-05-23T00:33:57.331Z,19.80
2017-05-23T00:36:25.651Z,19.80
2017-05-23T00:38:53.991Z,19.70
2017-05-23T00:41:22.307Z,19.60
2017-05-23T00:43:50.611Z,19.60
2017-05-23T00:46:18.936Z,19.50
2017-05-23T00:48:47.250Z,19.50
2017-05-23T00:51:15.563Z,19.50
2017-05-23T00:53:43.900Z,19.50
2017-05-23T00:56:12.324Z,19.50
2017-05-23T00:58:40.637Z,19.50
2017-05-23T01:01:08.962Z,19.50
2017-05-23T01:03:37.271Z,19.30
2017-05-23T01:06:05.583Z,19.10
2017-05-23T01:08:34.189Z,19.20
2017-05-23T01:11:02.494Z,19.00
2017-05-23T01:13:30.808Z,18.60
2017-05-23T01:15:59.132Z,18.70
2017-05-23T01:18:27.463Z,18.80
2017-05-23T01:20:55.780Z,18.80
2017-05-23T01:23:24.100Z,18.80
2017-05-23T01:25:52.411Z,18.90
2017-05-23T01:28:20.724Z,19.00
2017-05-23T01:30:49.043Z,18.90
2017-05-23T01:33:17.361Z,19.00
2017-05-23T01:35:45.671Z,18.90
2017-05-23T01:38:13.997Z,18.90
2017-05-23T01:40:42.312Z,18.80
2017-05-23T01:43:10.631Z,18.80
2017-05-23T01:48:13.704Z,18.50
2017-05-23T01:50:42.028Z,18.60
2017-05-23T01:53:10.360Z,18.60
2017-05-23T01:55:38.736Z,18.70
2017-05-23T01:58:07.120Z,18.80
2017-05-23T02:00:35.439Z,18.90
2017-05-23T02:03:03.759Z,18.90
2017-05-23T02:05:32.080Z,18.70
2017-05-23T02:08:00.387Z,18.60
2017-05-23T02:10:28.780Z,18.70
2017-05-23T02:12:57.331Z,18.70
2017-05-23T02:15:25.648Z,18.70
2017-05-23T02:17:53.965Z,18.60
2017-05-23T02:20:22.291Z,18.60
2017-05-23T02:22:50.617Z,18.50
2017-05-23T02:25:19.027Z,18.60
2017-05-23T02:27:47.459Z,18.60
2017-05-23T02:30:15.776Z,18.60
2017-05-23T02:32:44.139Z,18.60
2017-05-23T02:35:12.472Z,18.40
2017-05-23T02:37:40.787Z,18.20
2017-05-23T02:40:09.095Z,18.10
2017-05-23T02:42:37.411Z,18.10
2017-05-23T02:45:05.716Z,18.10
2017-05-23T02:47:34.120Z,18.20
2017-05-23T02:50:02.455Z,18.30
2017-05-23T02:52:30.777Z,18.40
2017-05-23T02:54:59.095Z,18.30
2017-05-23T02:57:27.415Z,18.30
2017-05-23T02:59:55.734Z,18.30
2017-05-23T03:02:24.044Z,18.40
2017-05-23T03:04:52.369Z,18.40
2017-05-23T03:07:20.694Z,18.40
2017-05-23T03:09:49.004Z,18.50
2017-05-23T03:12:17.328Z,18.50
2017-05-23T03:14:45.641Z,18.50
2017-05-23T03:17:13.956Z,18.20
2017-05-23T03:19:42.286Z,18.20
2017-05-23T03:22:10.600Z,18.20
2017-05-23T03:24:38.913Z,18.30
2017-05-23T03:27:07.246Z,18.30
2017-05-23T03:29:35.564Z,18.30
2017-05-23T03:32:03.884Z,18.30
2017-05-23T03:34:32.216Z,18.30
2017-05-23T03:37:00.601Z,18.30
2017-05-23T03:39:28.903Z,18.30
2017-05-23T03:41:57.236Z,18.30
2017-05-23T03:44:25.556Z,18.40
2017-05-23T03:46:53.872Z,18.30
2017-05-23T03:49:22.195Z,18.30
2017-05-23T03:51:50.507Z,18.40
2017-05-23T03:54:18.824Z,18.40
2017-05-23T03:56:47.144Z,18.40
2017-05-23T03:59:15.457Z,18.40
2017-05-23T04:01:43.861Z,18.30
2017-05-23T04:04:12.184Z,18.30
2017-05-23T04:06:40.516Z,18.20
2017-05-23T04:09:08.855Z,18.20
2017-05-23T04:11:37.192Z,18.30
2017-05-23T04:14:05.511Z,18.30
2017-05-23T04:16:33.828Z,18.30
2017-05-23T04:19:02.156Z,18.40
2017-05-23T04:21:30.479Z,18.50
2017-05-23T04:23:58.783Z,18.60
2017-05-23T04:26:27.123Z,18.50
2017-05-23T04:28:55.439Z,18.50
2017-05-23T04:31:23.748Z,18.50
2017-05-23T04:33:52.090Z,18.50
2017-05-23T04:36:20.416Z,18.50
2017-05-23T04:38:48.728Z,18.50
2017-05-23T04:41:17.071Z,18.50
2017-05-23T04:43:45.389Z,18.50
2017-05-23T04:46:13.717Z,18.50
2017-05-23T04:48:42.053Z,18.60
2017-05-23T04:51:10.402Z,18.60
2017-05-23T04:53:38.717Z,18.60
2017-05-23T04:56:07.060Z,18.70
2017-05-23T04:58:35.379Z,18.70
2017-05-23T05:01:03.695Z,18.70
2017-05-23T05:03:32.039Z,18.80
2017-05-23T05:06:00.360Z,18.80
2017-05-23T05:08:28.674Z,18.90
2017-05-23T05:10:57.004Z,18.90
2017-05-23T05:13:25.334Z,18.80
2017-05-23T05:15:53.647Z,18.90
2017-05-23T05:18:21.974Z,19.00
2017-05-23T05:20:53.175Z,19.00
2017-05-23T05:23:22.797Z,19.10
2017-05-23T05:25:51.205Z,19.10
2017-05-23T05:28:19.512Z,19.10
2017-05-23T05:30:47.984Z,19.20
2017-05-23T05:33:17.875Z,19.30
2017-05-23T05:35:46.187Z,19.30
2017-05-23T05:38:14.499Z,19.30
2017-05-23T05:40:42.807Z,19.30
2017-05-23T05:43:11.127Z,19.10
2017-05-23T05:45:39.442Z,19.20
2017-05-23T05:48:07.756Z,19.30
2017-05-23T05:50:36.086Z,19.50
2017-05-23T05:53:04.401Z,19.70
2017-05-23T05:55:32.716Z,19.80
2017-05-23T05:58:01.047Z,20.00
2017-05-23T06:00:29.376Z,20.10
2017-05-23T06:02:57.692Z,20.20
2017-05-23T06:05:26.048Z,20.20
2017-05-23T06:07:57.036Z,20.40
2017-05-23T06:10:26.931Z,20.40
2017-05-23T06:13:01.373Z,20.50
2017-05-23T06:15:29.691Z,20.40
2017-05-23T06:18:00.969Z,20.60
2017-05-23T06:20:29.287Z,20.60
2017-05-23T06:22:58.765Z,20.70
2017-05-23T06:25:27.075Z,20.80
2017-05-23T06:27:55.464Z,21.00
2017-05-23T06:30:23.780Z,21.10
2017-05-23T06:32:52.094Z,21.10
2017-05-23T06:35:20.420Z,21.10
2017-05-23T06:37:48.743Z,21.20
2017-05-23T06:40:17.071Z,21.30
2017-05-23T06:42:45.403Z,21.50
2017-05-23T06:45:13.711Z,21.60
2017-05-23T06:47:42.036Z,21.60
2017-05-23T06:50:10.355Z,21.60
2017-05-23T06:52:38.673Z,21.70
2017-05-23T06:55:06.983Z,21.70
2017-05-23T06:57:35.304Z,21.80
2017-05-23T07:00:03.635Z,21.90
2017-05-23T07:02:31.998Z,22.10
2017-05-23T07:05:00.324Z,22.20
2017-05-23T07:07:28.635Z,22.20
2017-05-23T07:09:56.947Z,22.30
2017-05-23T07:12:25.283Z,22.30
2017-05-23T07:14:53.595Z,22.40
2017-05-23T07:17:21.913Z,22.50
2017-05-23T07:19:50.236Z,22.50
2017-05-23T07:22:18.555Z,22.40
2017-05-23T07:24:46.872Z,22.20
2017-05-23T07:27:15.191Z,22.30
2017-05-23T07:29:43.503Z,22.60
2017-05-23T07:32:11.812Z,22.90
2017-05-23T07:34:40.141Z,22.90
2017-05-23T07:37:08.460Z,23.00
2017-05-23T07:39:36.775Z,23.30
2017-05-23T07:42:05.100Z,23.40
2017-05-23T07:44:33.408Z,23.60
2017-05-23T07:47:01.720Z,23.60
2017-05-23T07:49:30.060Z,23.70
2017-05-23T07:51:58.376Z,23.90
2017-05-23T07:54:26.684Z,24.00
2017-05-23T07:56:55.004Z,24.10
2017-05-23T07:59:23.313Z,24.20
2017-05-23T08:01:51.627Z,24.30
2017-05-23T08:04:19.945Z,24.50
2017-05-23T08:06:48.263Z,24.50
2017-05-23T08:09:16.588Z,24.60
2017-05-23T08:11:44.900Z,24.70
2017-05-23T08:14:13.208Z,24.70
2017-05-23T08:16:41.524Z,24.80
2017-05-23T08:19:09.872Z,24.90
2017-05-23T08:21:38.187Z,24.90
2017-05-23T08:24:06.498Z,24.70
2017-05-23T08:26:34.829Z,24.80
2017-05-23T08:29:03.151Z,25.00
2017-05-23T08:31:31.459Z,25.00
2017-05-23T08:33:59.847Z,24.60
2017-05-23T08:36:28.175Z,24.60
2017-05-23T08:38:56.479Z,24.80
2017-05-23T08:41:24.795Z,24.80
2017-05-23T08:43:53.108Z,24.90
2017-05-23T08:46:21.428Z,24.80
2017-05-23T08:48:49.752Z,25.10
2017-05-23T08:51:18.059Z,25.50
2017-05-23T08:53:46.369Z,25.80
2017-05-23T08:56:14.695Z,26.10
2017-05-23T08:58:43.008Z,26.30
2017-05-23T09:01:11.328Z,26.30
2017-05-23T09:03:39.656Z,26.50
2017-05-23T09:06:07.972Z,26.50
2017-05-23T09:08:36.291Z,26.70
2017-05-23T09:11:04.623Z,27.00
2017-05-23T09:13:32.935Z,27.20
2017-05-23T09:16:01.253Z,27.30
2017-05-23T09:18:29.571Z,27.50
2017-05-23T09:20:57.879Z,27.60
2017-05-23T09:23:26.183Z,27.60
2017-05-23T09:26:00.252Z,27.90
2017-05-23T09:28:28.559Z,28.10
2017-05-23T09:30:56.864Z,28.20
2017-05-23T09:33:25.521Z,28.20
2017-05-23T09:35:53.823Z,28.10
2017-05-23T09:38:22.135Z,28.00
2017-05-23T09:40:50.445Z,28.00
2017-05-23T09:43:18.752Z,28.00
2017-05-23T09:45:47.061Z,28.00
2017-05-23T09:48:15.376Z,28.30
2017-05-23T09:50:43.691Z,28.40
2017-05-23T09:53:12.006Z,28.50
2017-05-23T09:55:40.324Z,28.50
2017-05-23T09:58:08.635Z,28.10
2017-05-23T10:00:36.940Z,28.00
2017-05-23T10:03:05.268Z,28.20
2017-05-23T10:05:33.579Z,28.10
2017-05-23T10:08:01.889Z,28.20
2017-05-23T10:10:30.204Z,28.10
2017-05-23T10:12:58.511Z,27.70
2017-05-23T10:15:26.823Z,28.00
2017-05-23T10:17:55.176Z,28.30
2017-05-23T10:20:23.487Z,28.50
2017-05-23T10:22:51.814Z,28.50
2017-05-23T10:25:20.131Z,28.60
2017-05-23T10:27:48.455Z,28.70
2017-05-23T10:30:16.770Z,28.80
2017-05-23T10:32:45.143Z,28.90
2017-05-23T10:35:13.619Z,29.00
2017-05-23T10:37:42.276Z,29.10
2017-05-23T10:40:10.602Z,29.30
2017-05-23T10:42:39.067Z,29.40
2017-05-23T10:45:08.734Z,29.60
2017-05-23T10:47:37.155Z,29.60
2017-05-23T10:50:05.741Z,29.40
2017-05-23T10:52:34.392Z,29.20
2017-05-23T10:55:02.777Z,29.40
2017-05-23T10:57:31.891Z,29.40
2017-05-23T11:00:00.507Z,29.60
2017-05-23T11:02:28.849Z,29.80
2017-05-23T11:04:57.160Z,30.10
2017-05-23T11:07:25.612Z,30.30
2017-05-23T11:09:55.200Z,30.50
2017-05-23T11:12:23.512Z,30.60
2017-05-23T11:14:51.840Z,30.70
2017-05-23T11:17:20.147Z,30.50
2017-05-23T11:19:48.465Z,30.60
2017-05-23T11:22:16.781Z,30.80
2017-05-23T11:24:45.177Z,30.80
2017-05-23T11:27:13.680Z,29.90
2017-05-23T11:29:41.995Z,29.90
2017-05-23T11:32:10.300Z,29.90
2017-05-23T11:34:38.623Z,30.20
2017-05-23T11:37:06.928Z,30.40
2017-05-23T11:39:35.240Z,30.70
2017-05-23T11:42:03.566Z,30.90
2017-05-23T11:44:31.874Z,31.00
2017-05-23T11:47:00.179Z,31.30
2017-05-23T11:49:28.495Z,30.90
2017-05-23T11:51:56.809Z,31.00
2017-05-23T11:54:25.229Z,31.20
2017-05-23T11:56:53.551Z,31.60
2017-05-23T11:59:21.867Z,31.50
2017-05-23T12:01:50.183Z,31.90
2017-05-23T12:04:18.813Z,32.30
2017-05-23T12:06:47.124Z,32.50
2017-05-23T12:09:15.492Z,32.20
2017-05-23T12:11:43.813Z,31.50
2017-05-23T12:14:12.123Z,31.30
2017-05-23T12:16:40.437Z,30.80
2017-05-23T12:19:08.754Z,31.10
2017-05-23T12:21:37.060Z,31.20
2017-05-23T12:24:05.368Z,31.80
2017-05-23T12:26:33.685Z,32.20
2017-05-23T12:29:01.988Z,32.00
2017-05-23T12:31:30.670Z,31.90
2017-05-23T12:33:59.476Z,31.20
2017-05-23T12:36:28.287Z,31.30
2017-05-23T12:38:56.600Z,31.30
2017-05-23T12:41:24.916Z,31.50
2017-05-23T12:43:53.740Z,31.40
2017-05-23T12:46:22.439Z,31.40
2017-05-23T12:48:50.757Z,31.30
2017-05-23T12:51:19.076Z,31.20
2017-05-23T12:53:47.576Z,31.30
2017-05-23T12:56:16.010Z,31.20
2017-05-23T12:58:44.324Z,31.20
2017-05-23T13:01:12.632Z,31.40
2017-05-23T13:03:40.948Z,31.80
2017-05-23T13:06:09.265Z,32.60
2017-05-23T13:08:37.570Z,33.20
2017-05-23T13:11:05.882Z,33.50
2017-05-23T13:13:34.189Z,33.60
2017-05-23T13:16:02.491Z,33.80
2017-05-23T13:18:30.812Z,33.00
2017-05-23T13:20:59.116Z,32.60
2017-05-23T13:23:27.950Z,32.70
2017-05-23T13:25:56.605Z,32.70
2017-05-23T13:28:24.908Z,32.80
2017-05-23T13:30:53.212Z,33.50
2017-05-23T13:33:21.528Z,33.40
2017-05-23T13:35:49.840Z,33.80
2017-05-23T13:38:18.152Z,33.60
2017-05-23T13:40:46.478Z,32.80
2017-05-23T13:43:14.780Z,32.70
2017-05-23T13:45:43.089Z,32.70
2017-05-23T13:48:11.409Z,33.00
2017-05-23T13:50:39.723Z,33.50
2017-05-23T13:53:08.032Z,33.90
2017-05-23T13:55:36.348Z,34.20
2017-05-23T13:58:04.667Z,34.10
2017-05-23T14:00:32.976Z,33.20
2017-05-23T14:03:01.296Z,32.90
2017-05-23T14:05:29.605Z,32.50
2017-05-23T14:07:57.931Z,32.20
2017-05-23T14:10:26.248Z,32.50
2017-05-23T14:12:54.561Z,33.20
2017-05-23T14:15:22.868Z,32.70
2017-05-23T14:17:51.188Z,32.50
2017-05-23T14:20:19.503Z,32.20
2017-05-23T14:22:47.813Z,32.50
2017-05-23T14:25:16.136Z,32.50
2017-05-23T14:27:44.450Z,32.40
2017-05-23T14:30:12.755Z,32.30
2017-05-23T14:32:41.069Z,32.30
2017-05-23T14:35:09.379Z,32.70
2017-05-23T14:37:37.696Z,33.00
2017-05-23T14:40:06.017Z,33.20
2017-05-23T14:42:34.328Z,33.20
2017-05-23T14:45:02.648Z,32.00
2017-05-23T14:47:30.968Z,31.60
2017-05-23T14:49:59.277Z,31.60
2017-05-23T14:52:27.592Z,31.60
2017-05-23T14:54:55.913Z,32.00
2017-05-23T14:57:24.228Z,32.20
2017-05-23T14:59:52.538Z,31.60
2017-05-23T15:02:20.851Z,31.00
2017-05-23T15:04:49.155Z,30.20
2017-05-23T15:07:17.455Z,29.70
2017-05-23T15:09:45.774Z,29.60
2017-05-23T15:12:14.084Z,29.50
2017-05-23T15:14:42.427Z,29.80
2017-05-23T15:17:10.735Z,29.60
2017-05-23T15:19:39.043Z,29.30
2017-05-23T15:22:07.356Z,29.20
2017-05-23T15:24:35.729Z,29.50
2017-05-23T15:27:04.062Z,29.60
2017-05-23T15:29:32.366Z,29.40
2017-05-23T15:32:01.068Z,29.40
2017-05-23T15:34:29.387Z,29.20
2017-05-23T15:36:57.733Z,29.10
2017-05-23T15:39:26.060Z,29.30
2017-05-23T15:41:54.486Z,29.20
2017-05-23T15:44:22.786Z,29.40
2017-05-23T15:46:51.108Z,29.60
2017-05-23T15:49:19.411Z,29.60
2017-05-23T15:51:47.716Z,30.10
2017-05-23T15:54:16.066Z,29.60
2017-05-23T15:56:44.407Z,29.40
2017-05-23T15:59:12.720Z,29.60
2017-05-23T16:01:41.037Z,29.80
2017-05-23T16:04:09.343Z,29.70
2017-05-23T16:06:37.652Z,29.40
2017-05-23T16:09:05.972Z,28.90
2017-05-23T16:11:34.281Z,28.70
2017-05-23T16:14:02.599Z,28.50
2017-05-23T16:16:30.933Z,28.70
2017-05-23T16:18:59.244Z,28.80
2017-05-23T16:21:27.552Z,28.30
2017-05-23T16:23:55.875Z,28.20
2017-05-23T16:26:24.183Z,28.00
2017-05-23T16:28:53.214Z,27.90
2017-05-23T16:31:21.527Z,28.00
2017-05-23T16:33:49.885Z,28.10
2017-05-23T16:36:18.199Z,28.30
2017-05-23T16:38:46.512Z,28.00
2017-05-23T16:41:14.824Z,28.00
2017-05-23T16:43:43.143Z,27.90
2017-05-23T16:46:11.463Z,27.90
2017-05-23T16:48:39.772Z,28.00
2017-05-23T16:51:08.100Z,28.40
2017-05-23T16:53:36.413Z,28.20
2017-05-23T16:56:04.756Z,28.40
2017-05-23T16:58:33.071Z,28.40
2017-05-23T17:01:01.474Z,28.40
2017-05-23T17:03:29.799Z,28.50
2017-05-23T17:05:58.108Z,28.70
2017-05-23T17:08:26.490Z,28.40
2017-05-23T17:10:54.948Z,28.60
2017-05-23T17:13:23.257Z,28.50
2017-05-23T17:15:51.579Z,28.30
2017-05-23T17:18:19.880Z,28.10
2017-05-23T17:20:48.729Z,27.90
2017-05-23T17:23:17.557Z,27.80
2017-05-23T17:25:46.297Z,27.80
2017-05-23T17:28:15.051Z,27.90
2017-05-23T17:30:44.084Z,27.90
2017-05-23T17:33:12.961Z,28.10
2017-05-23T17:35:42.069Z,28.10
2017-05-23T17:38:11.255Z,28.10
2017-05-23T17:40:40.101Z,28.10
2017-05-23T17:43:08.692Z,28.10
2017-05-23T17:45:37.537Z,27.90
2017-05-23T17:48:06.902Z,27.80
2017-05-23T17:50:35.659Z,27.70
2017-05-23T17:53:04.567Z,27.60
2017-05-23T17:55:34.923Z,27.50
2017-05-23T17:58:06.336Z,27.40
2017-05-23T18:00:35.416Z,27.30
2017-05-23T18:03:06.751Z,27.20
2017-05-23T18:05:36.268Z,27.20
2017-05-23T18:08:06.486Z,27.00
2017-05-23T18:10:39.281Z,27.00
2017-05-23T18:13:10.719Z,27.00
2017-05-23T18:15:39.083Z,26.90
2017-05-23T18:18:09.693Z,26.80
2017-05-23T18:20:39.680Z,26.70
2017-05-23T18:23:10.202Z,26.60
2017-05-23T18:25:40.103Z,26.60
2017-05-23T18:28:08.880Z,26.50
2017-05-23T18:30:38.608Z,26.30
2017-05-23T18:33:07.596Z,26.40
2017-05-23T18:35:35.930Z,26.20
2017-05-23T18:38:10.182Z,26.20
2017-05-23T18:40:40.339Z,26.10
2017-05-23T18:43:08.687Z,26.10
2017-05-23T18:45:37.252Z,26.00
2017-05-23T18:48:07.168Z,26.00
2017-05-23T18:50:35.479Z,26.00
2017-05-23T18:53:04.435Z,25.90
2017-05-23T18:55:32.768Z,25.80
2017-05-23T18:58:01.072Z,25.60
2017-05-23T19:00:29.759Z,25.50
2017-05-23T19:02:59.375Z,25.50
2017-05-23T19:05:28.271Z,25.40
2017-05-23T19:07:57.374Z,25.40
2017-05-23T19:10:26.209Z,25.30
2017-05-23T19:12:55.629Z,25.30
2017-05-23T19:15:24.651Z,25.30
2017-05-23T19:17:54.054Z,25.30
2017-05-23T19:20:22.529Z,25.30
2017-05-23T19:22:51.933Z,25.30
2017-05-23T19:25:20.646Z,25.30
2017-05-23T19:27:49.414Z,25.20
2017-05-23T19:30:19.036Z,25.20
2017-05-23T19:32:47.803Z,25.10
2017-05-23T19:35:16.921Z,25.10
2017-05-23T19:37:46.096Z,25.00
2017-05-23T19:40:15.398Z,25.00
2017-05-23T19:42:44.459Z,24.90
2017-05-23T19:45:12.789Z,24.80
2017-05-23T19:47:41.112Z,24.80
2017-05-23T19:50:09.474Z,24.80
2017-05-23T19:52:37.787Z,24.80
2017-05-23T19:55:06.176Z,24.80
2017-05-23T19:57:34.500Z,24.80
2017-05-23T20:00:02.812Z,24.70
2017-05-23T20:02:31.125Z,24.70
2017-05-23T20:05:00.117Z,24.70
2017-05-23T20:07:29.400Z,24.70
2017-05-23T20:09:58.889Z,24.70
2017-05-23T20:12:29.126Z,24.60
2017-05-23T20:14:57.618Z,24.60
2017-05-23T20:17:25.941Z,24.00
2017-05-23T20:19:54.767Z,23.90
2017-05-23T20:22:23.104Z,23.80
2017-05-23T20:24:51.403Z,24.00
2017-05-23T20:27:19.707Z,24.10
2017-05-23T20:29:48.032Z,24.20
2017-05-23T20:32:16.349Z,24.30
2017-05-23T20:34:44.656Z,24.20
2017-05-23T20:37:12.981Z,24.10
2017-05-23T20:39:41.300Z,24.20
2017-05-23T20:42:09.700Z,24.00
2017-05-23T20:44:38.027Z,24.10
2017-05-23T20:47:06.344Z,24.10
2017-05-23T20:49:34.664Z,24.30
2017-05-23T20:52:02.983Z,24.30
2017-05-23T20:54:31.301Z,24.20
2017-05-23T20:56:59.612Z,24.30
2017-05-23T20:59:27.924Z,24.30
2017-05-23T21:01:56.236Z,24.30
2017-05-23T21:04:24.554Z,24.30
2017-05-23T21:06:52.878Z,24.30
2017-05-23T21:09:21.211Z,24.30
2017-05-23T21:11:49.523Z,24.30
2017-05-23T21:14:17.848Z,24.30
2017-05-23T21:16:46.170Z,24.30
2017-05-23T21:19:14.486Z,24.20
2017-05-23T21:21:42.817Z,24.20
2017-05-23T21:24:11.127Z,24.10
2017-05-23T21:26:39.442Z,24.20
2017-05-23T21:29:08.768Z,24.10
2017-05-23T21:31:37.088Z,24.10
2017-05-23T21:34:05.403Z,24.10
2017-05-23T21:36:33.723Z,24.10
2017-05-23T21:39:02.048Z,24.10
2017-05-23T21:41:30.379Z,24.10
2017-05-23T21:43:58.708Z,24.00
2017-05-23T21:46:27.016Z,23.90
2017-05-23T21:48:55.332Z,23.90
2017-05-23T21:51:23.663Z,23.80
2017-05-23T21:53:51.995Z,23.50
2017-05-23T21:56:20.318Z,23.50
2017-05-23T21:58:48.635Z,23.30
2017-05-23T22:01:16.976Z,23.30
2017-05-23T22:03:45.299Z,23.10
2017-05-23T22:06:13.631Z,23.00
2017-05-23T22:08:42.012Z,22.90
2017-05-23T22:11:10.339Z,22.80
2017-05-23T22:13:38.671Z,22.90
2017-05-23T22:16:07.006Z,23.10
2017-05-23T22:18:35.323Z,23.10
2017-05-23T22:21:03.642Z,23.20
2017-05-23T22:23:31.965Z,23.10
2017-05-23T22:26:00.277Z,23.10
2017-05-23T22:28:28.595Z,23.10
2017-05-23T22:30:56.920Z,23.10
2017-05-23T22:33:25.248Z,23.00
2017-05-23T22:35:53.565Z,22.70
2017-05-23T22:38:21.890Z,22.50
2017-05-23T22:40:50.206Z,22.30
2017-05-23T22:43:18.521Z,22.40
2017-05-23T22:45:46.848Z,22.30
2017-05-23T22:48:15.176Z,22.10
2017-05-23T22:50:43.488Z,22.20
2017-05-23T22:53:11.803Z,21.90
2017-05-23T22:55:40.115Z,22.00
2017-05-23T22:58:08.435Z,22.10
2017-05-23T23:00:36.757Z,22.10
2017-05-23T23:03:05.076Z,22.10
2017-05-23T23:05:33.401Z,22.00
2017-05-23T23:08:01.735Z,22.10
2017-05-23T23:10:30.045Z,22.20
2017-05-23T23:12:57.600Z,22.20
2017-05-23T23:15:25.931Z,22.20
2017-05-23T23:17:54.240Z,21.90
2017-05-23T23:23:16.159Z,21.20
2017-05-23T23:25:44.469Z,21.10
2017-05-23T23:28:12.789Z,21.10
2017-05-23T23:30:41.132Z,21.20
2017-05-23T23:33:09.453Z,21.10
2017-05-23T23:35:37.763Z,21.20
2017-05-23T23:38:06.110Z,21.30
2017-05-23T23:40:34.423Z,21.20
2017-05-23T23:43:02.732Z,20.90
2017-05-23T23:45:31.075Z,20.60
2017-05-23T23:47:59.392Z,20.50
2017-05-23T23:50:27.704Z,20.70
2017-05-23T23:52:56.049Z,20.60
2017-05-23T23:55:24.359Z,20.50
2017-05-23T23:57:52.680Z,20.70
